createdAt,value
2023-12-16T00:07:55.041Z,92.18
2023-12-16T00:17:59.399Z,91.88
2023-12-16T00:28:02.265Z,91.31
2023-12-16T00:38:06.487Z,92.41
2023-12-16T00:48:09.637Z,90.61
2023-12-16T00:58:14.178Z,89.09
2023-12-16T01:08:17.434Z,90.01
2023-12-16T01:18:21.535Z,89.90
2023-12-16T01:28:24.507Z,90.58
2023-12-16T01:38:28.741Z,90.35
2023-12-16T01:48:32.078Z,91.32
2023-12-16T01:58:37.051Z,89.60
2023-12-16T02:08:39.849Z,89.79
2023-12-16T02:18:44.314Z,88.57
2023-12-16T02:28:48.534Z,89.25
2023-12-16T02:38:51.313Z,88.33
2023-12-16T02:48:55.581Z,88.97
2023-12-16T02:58:58.569Z,90.31
2023-12-16T03:09:02.868Z,90.92
2023-12-16T03:19:05.940Z,91.01
2023-12-16T03:29:10.205Z,91.22
2023-12-16T03:39:13.661Z,91.21
2023-12-16T03:49:17.847Z,91.41
2023-12-16T03:59:20.664Z,92.19
2023-12-16T04:09:25.021Z,92.98
2023-12-16T04:19:27.972Z,92.36
2023-12-16T04:29:32.406Z,92.01
2023-12-16T04:39:35.225Z,90.97
2023-12-16T04:49:39.402Z,93.29
2023-12-16T04:59:42.298Z,95.09
2023-12-16T05:09:46.617Z,95.90
2023-12-16T05:19:49.415Z,92.88
2023-12-16T05:29:53.564Z,93.18
2023-12-16T05:39:57.289Z,92.35
2023-12-16T05:50:01.758Z,94.70
2023-12-16T06:00:09.654Z,92.42
2023-12-16T06:10:15.240Z,90.24
2023-12-16T06:20:18.405Z,95.50
2023-12-16T06:30:22.616Z,92.22
2023-12-16T06:40:25.499Z,90.81
2023-12-16T06:50:29.719Z,91.41
2023-12-16T07:00:32.520Z,95.30
2023-12-16T07:10:36.965Z,96.33
2023-12-16T07:20:39.795Z,93.25
2023-12-16T07:30:44.092Z,90.01
2023-12-16T07:40:47.329Z,93.79
2023-12-16T07:50:54.539Z,97.36
2023-12-16T08:00:57.482Z,94.06
2023-12-16T08:11:01.921Z,92.19
2023-12-16T08:21:05.464Z,88.96
2023-12-16T08:31:09.797Z,87.01
2023-12-16T08:41:13.294Z,85.87
2023-12-16T08:51:17.888Z,84.79
2023-12-16T09:01:20.990Z,83.40
2023-12-16T09:11:25.208Z,83.00
2023-12-16T09:21:28.202Z,83.10
2023-12-16T09:31:35.108Z,82.44
2023-12-16T09:41:45.373Z,81.03
2023-12-16T09:51:49.767Z,81.18
2023-12-16T10:01:55.422Z,81.38
2023-12-16T10:12:00.655Z,81.00
2023-12-16T10:22:06.455Z,80.17
2023-12-16T10:32:12.834Z,79.62
2023-12-16T10:42:16.150Z,80.68
2023-12-16T10:52:22.193Z,79.59
2023-12-16T11:02:28.344Z,78.33
2023-12-16T11:12:33.035Z,74.06
2023-12-16T11:22:47.194Z,65.55
2023-12-16T11:32:56.236Z,61.54
2023-12-16T11:43:03.925Z,62.34
2023-12-16T11:53:09.745Z,66.57
2023-12-16T12:03:13.157Z,62.33
2023-12-16T12:13:17.476Z,58.31
2023-12-16T12:23:20.288Z,56.33
2023-12-16T12:33:25.182Z,56.10
2023-12-16T12:43:32.057Z,57.03
2023-12-16T12:53:37.785Z,58.07
2023-12-16T13:03:41.756Z,58.69
2023-12-16T13:13:46.143Z,61.42
2023-12-16T13:23:49.039Z,62.41
2023-12-16T13:33:53.578Z,63.56
2023-12-16T13:43:56.736Z,62.14
2023-12-16T13:54:01.033Z,61.15
2023-12-16T14:04:04.668Z,58.35
2023-12-16T14:14:09.189Z,60.08
2023-12-16T14:24:12.677Z,65.26
2023-12-16T14:34:18.330Z,69.08
2023-12-16T14:44:21.144Z,70.08
2023-12-16T14:54:25.569Z,72.71
2023-12-16T15:04:28.356Z,74.06
2023-12-16T15:14:32.559Z,75.72
2023-12-16T15:24:35.399Z,76.83
2023-12-16T15:34:39.722Z,77.72
2023-12-16T15:44:43.180Z,79.71
2023-12-16T15:54:47.371Z,82.13
2023-12-16T16:04:51.316Z,81.35
2023-12-16T16:14:55.516Z,82.71
2023-12-16T16:24:59.257Z,83.09
2023-12-16T16:35:06.953Z,84.36
2023-12-16T16:45:10.870Z,83.93
2023-12-16T16:55:15.142Z,84.79
2023-12-16T17:05:20.473Z,84.97
2023-12-16T17:15:25.956Z,86.58
2023-12-16T17:25:28.786Z,89.29
2023-12-16T17:35:33.861Z,90.82
2023-12-16T17:45:36.717Z,92.96
2023-12-16T17:55:42.354Z,93.57
2023-12-16T18:05:45.291Z,94.67
2023-12-16T18:15:49.485Z,96.68
2023-12-16T18:25:54.151Z,97.67
2023-12-16T18:35:58.313Z,97.09
2023-12-16T18:46:01.117Z,99.88
2023-12-16T18:56:07.334Z,100.00
2023-12-16T19:06:10.757Z,100.00
2023-12-16T19:16:14.702Z,100.00
2023-12-16T19:26:17.596Z,100.00
2023-12-16T19:36:21.759Z,100.00
2023-12-16T19:46:24.527Z,100.00
2023-12-16T19:56:29.282Z,100.00
2023-12-16T20:06:32.102Z,100.00
2023-12-16T20:16:36.416Z,100.00
2023-12-16T20:26:39.472Z,100.00
2023-12-16T20:36:44.020Z,100.00
2023-12-16T20:46:47.008Z,100.00
2023-12-16T20:56:51.541Z,100.00
2023-12-16T21:06:54.676Z,100.00
2023-12-16T21:16:58.668Z,100.00
2023-12-16T21:27:01.576Z,100.00
2023-12-16T21:37:08.057Z,100.00
2023-12-16T21:47:10.818Z,100.00
2023-12-16T21:57:15.130Z,100.00
2023-12-16T22:07:17.950Z,100.00
2023-12-16T22:17:22.946Z,100.00
2023-12-16T22:27:25.801Z,100.00
2023-12-16T22:37:30.109Z,100.00
2023-12-16T22:47:33.084Z,100.00
2023-12-16T22:57:37.699Z,100.00
2023-12-16T23:07:40.874Z,100.00
2023-12-16T23:17:46.701Z,100.00
2023-12-16T23:27:49.840Z,100.00
2023-12-16T23:37:53.991Z,100.00
2023-12-16T23:47:57.129Z,100.00
2023-12-16T23:58:01.356Z,100.00
